createdAt,value
2023-04-01T00:01:43.817Z,100.00
2023-04-01T00:06:55.077Z,100.00
2023-04-01T00:33:39.599Z,100.00
2023-04-01T00:52:38.740Z,100.00
2023-04-01T01:00:37.545Z,100.00
2023-04-01T01:18:41.085Z,100.00
2023-04-01T01:24:52.739Z,100.00
2023-04-01T01:30:05.162Z,100.00
2023-04-01T01:38:39.114Z,100.00
2023-04-01T01:43:57.556Z,100.00
2023-04-01T01:51:54.607Z,100.00
2023-04-01T02:00:09.254Z,100.00
2023-04-01T02:02:45.705Z,100.00
2023-04-01T02:11:27.990Z,100.00
2023-04-01T02:14:16.036Z,100.00
2023-04-01T02:16:57.819Z,100.00
2023-04-01T02:19:38.657Z,100.00
2023-04-01T02:25:02.179Z,100.00
2023-04-01T02:27:40.897Z,100.00
2023-04-01T02:30:14.863Z,100.00
2023-04-01T02:38:07.353Z,100.00
2023-04-01T02:46:14.320Z,100.00
2023-04-01T02:51:25.067Z,100.00
2023-04-01T02:56:35.615Z,100.00
2023-04-01T02:59:04.181Z,100.00
2023-04-01T03:01:32.587Z,100.00
2023-04-01T03:06:45.792Z,100.00
2023-04-01T03:09:21.794Z,100.00
2023-04-01T03:14:33.644Z,100.00
2023-04-01T03:17:11.162Z,100.00
2023-04-01T03:25:07.780Z,100.00
2023-04-01T03:27:37.691Z,100.00
2023-04-01T03:30:12.104Z,100.00
2023-04-01T03:32:50.518Z,100.00
2023-04-01T03:40:48.881Z,100.00
2023-04-01T03:43:18.415Z,100.00
2023-04-01T03:45:49.452Z,100.00
2023-04-01T03:48:22.158Z,100.00
2023-04-01T03:58:53.720Z,100.00
2023-04-01T04:01:27.701Z,100.00
2023-04-01T04:03:58.498Z,100.00
2023-04-01T04:14:31.825Z,100.00
2023-04-01T04:25:10.036Z,100.00
2023-04-01T04:27:38.394Z,100.00
2023-04-01T04:30:13.631Z,100.00
2023-04-01T04:35:24.513Z,100.00
2023-04-01T04:37:52.688Z,100.00
2023-04-01T04:40:22.250Z,100.00
2023-04-01T04:42:50.378Z,100.00
2023-04-01T04:45:21.601Z,100.00
2023-04-01T04:47:57.352Z,100.00
2023-04-01T04:50:26.876Z,100.00
2023-04-01T04:52:54.474Z,100.00
2023-04-01T04:55:22.093Z,100.00
2023-04-01T04:57:58.763Z,100.00
2023-04-01T05:00:26.699Z,100.00
2023-04-01T05:02:58.700Z,100.00
2023-04-01T05:08:07.884Z,100.00
2023-04-01T05:10:37.412Z,100.00
2023-04-01T05:13:09.423Z,100.00
2023-04-01T05:18:34.603Z,100.00
2023-04-01T05:29:36.994Z,100.00
2023-04-01T05:48:58.565Z,100.00
2023-04-01T06:02:16.308Z,100.00
2023-04-01T06:13:27.472Z,100.00
2023-04-01T06:16:09.957Z,100.00
2023-04-01T06:30:38.080Z,100.00
2023-04-01T06:33:16.818Z,100.00
2023-04-01T09:45:47.077Z,77.62
2023-04-01T09:52:53.772Z,76.48
2023-04-01T10:33:54.217Z,70.15
2023-04-01T10:40:23.545Z,68.62
2023-04-01T10:43:24.222Z,67.69
2023-04-01T10:46:31.909Z,66.74
2023-04-01T10:49:15.832Z,67.77
2023-04-01T10:52:28.516Z,70.54
2023-04-01T10:55:46.031Z,68.71
2023-04-01T11:02:42.187Z,68.39
2023-04-01T11:06:15.266Z,66.39
2023-04-01T11:09:33.144Z,63.40
2023-04-01T11:12:35.496Z,64.83
2023-04-01T11:15:25.917Z,65.65
2023-04-01T11:18:32.936Z,65.05
2023-04-01T11:21:26.734Z,63.67
2023-04-01T11:24:21.624Z,64.56
2023-04-01T11:31:43.314Z,62.65
2023-04-01T11:35:17.382Z,60.80
2023-04-01T11:38:24.197Z,60.09
2023-04-01T11:44:36.176Z,63.29
2023-04-01T11:47:44.402Z,61.19
2023-04-01T11:50:34.007Z,63.33
2023-04-01T12:11:43.028Z,61.23
2023-04-01T12:14:45.823Z,60.52
2023-04-01T12:17:30.739Z,60.75
2023-04-01T12:20:50.048Z,59.57
2023-04-01T12:23:53.324Z,58.51
2023-04-01T12:26:50.470Z,60.45
2023-04-01T12:29:26.628Z,58.24
2023-04-01T12:39:04.371Z,59.54
2023-04-01T12:47:59.534Z,59.10
2023-04-01T14:33:13.668Z,74.90
2023-04-01T14:36:04.754Z,75.79
2023-04-01T14:38:53.948Z,75.91
2023-04-01T14:44:44.661Z,76.95
2023-04-01T14:47:52.530Z,77.41
2023-04-01T15:18:40.741Z,85.71
2023-04-01T15:21:34.348Z,86.33
2023-04-01T15:24:19.296Z,85.99
2023-04-01T15:27:37.430Z,86.66
2023-04-01T15:30:21.653Z,86.53
2023-04-01T15:33:23.552Z,86.42
2023-04-01T15:35:54.485Z,86.96
2023-04-01T15:39:22.759Z,86.82
2023-04-01T15:42:31.679Z,87.23
2023-04-01T15:45:20.426Z,87.72
2023-04-01T15:48:29.150Z,87.38
2023-04-01T15:51:31.101Z,87.30
2023-04-01T15:54:44.007Z,87.11
2023-04-01T16:00:42.501Z,87.48
2023-04-01T16:03:35.364Z,87.61
2023-04-01T16:06:39.439Z,88.09
2023-04-01T16:09:53.158Z,87.60
2023-04-01T16:12:46.324Z,87.62
2023-04-01T16:15:51.947Z,87.75
2023-04-01T16:18:35.670Z,88.05
2023-04-01T16:21:30.254Z,89.41
2023-04-01T16:24:15.281Z,90.24
2023-04-01T16:26:55.674Z,90.81
2023-04-01T16:32:54.257Z,91.08
2023-04-01T16:35:49.142Z,92.27
2023-04-01T16:38:40.952Z,92.32
2023-04-01T16:44:52.581Z,93.37
2023-04-01T16:47:49.181Z,93.68
2023-04-01T16:53:58.682Z,95.18
2023-04-01T16:59:37.104Z,95.80
2023-04-01T17:02:24.655Z,95.88
2023-04-01T17:05:16.791Z,96.49
2023-04-01T17:08:02.716Z,96.05
2023-04-01T17:10:45.979Z,96.57
2023-04-01T17:13:28.432Z,96.64
2023-04-01T17:16:31.356Z,95.68
2023-04-01T17:19:29.183Z,95.70
2023-04-01T17:22:21.080Z,95.52
2023-04-01T17:25:19.555Z,95.88
2023-04-01T17:28:30.894Z,96.16
2023-04-01T17:35:00.258Z,96.37
2023-04-01T17:37:57.388Z,96.29
2023-04-01T17:40:55.237Z,95.98
2023-04-01T17:46:46.966Z,96.36
2023-04-01T17:49:28.029Z,95.90
2023-04-01T17:52:15.716Z,96.12
2023-04-01T17:58:28.303Z,97.26
2023-04-01T18:01:18.740Z,97.13
2023-04-01T18:04:22.574Z,97.36
2023-04-01T18:10:08.840Z,97.02
2023-04-01T18:23:52.204Z,98.16
2023-04-01T18:26:47.466Z,98.33
2023-04-01T18:29:36.902Z,98.18
2023-04-01T18:35:31.819Z,99.29
2023-04-01T18:41:41.278Z,99.08
2023-04-01T18:44:45.815Z,99.13
2023-04-01T19:26:50.253Z,100.00
2023-04-01T19:29:52.464Z,100.00
2023-04-01T19:32:47.721Z,100.00
2023-04-01T19:35:45.961Z,100.00
2023-04-01T19:42:17.361Z,100.00
2023-04-01T19:51:27.531Z,100.00
2023-04-01T22:00:04.856Z,100.00
2023-04-01T22:03:10.365Z,100.00
2023-04-01T22:06:06.973Z,100.00
2023-04-01T22:09:00.134Z,100.00
2023-04-01T22:12:11.864Z,100.00
2023-04-01T22:14:55.171Z,100.00
2023-04-01T22:17:34.096Z,100.00
2023-04-01T22:20:28.113Z,100.00
2023-04-01T22:23:22.472Z,100.00
2023-04-01T22:26:11.960Z,100.00
2023-04-01T22:29:01.281Z,100.00
2023-04-01T22:31:53.883Z,100.00
2023-04-01T22:34:30.472Z,100.00
2023-04-01T22:37:15.606Z,100.00
2023-04-01T22:40:00.959Z,100.00
2023-04-01T22:42:43.280Z,100.00
2023-04-01T22:45:15.571Z,100.00
2023-04-01T22:48:07.859Z,100.00
2023-04-01T22:51:02.168Z,100.00
2023-04-01T22:53:58.840Z,100.00
2023-04-01T22:56:56.189Z,100.00
2023-04-01T22:59:43.449Z,100.00
2023-04-01T23:02:23.627Z,100.00
2023-04-01T23:04:59.318Z,100.00
2023-04-01T23:07:51.410Z,100.00
2023-04-01T23:10:44.448Z,100.00
2023-04-01T23:13:24.398Z,100.00
2023-04-01T23:15:55.794Z,100.00
2023-04-01T23:18:46.825Z,100.00
2023-04-01T23:21:25.131Z,100.00
2023-04-01T23:24:28.454Z,100.00
2023-04-01T23:27:03.250Z,100.00
2023-04-01T23:29:31.644Z,100.00
2023-04-01T23:32:08.867Z,100.00
2023-04-01T23:34:37.806Z,100.00
2023-04-01T23:37:12.712Z,100.00
2023-04-01T23:42:36.357Z,100.00
2023-04-01T23:45:18.940Z,100.00
2023-04-01T23:47:50.090Z,100.00
2023-04-01T23:50:27.934Z,100.00
2023-04-01T23:53:14.505Z,100.00
2023-04-01T23:55:43.286Z,100.00
2023-04-01T23:58:23.233Z,100.00
